Terminal Aerodrome Forecast
Issued by NWS Charleston, WV

Current Version | Previous Version | Text Only | Print | Product List | Glossary Off
Versions: 1 2 3 4 5 6 7 8 9 10 11 12 13 14 15 16 17 18 19 20 21 22 23 24 25

570
FTUS41 KRLX 230545
TAFCRW
TAF
KCRW 230545Z 2306/2406 VRB15G25KT 1/2SM TSRA BKN010CB
     FM230700 VRB03KT P6SM VCSH BKN020
      TEMPO 2307/2309 4SM BR SCT001
     FM230900 00000KT 4SM BR BKN250
      TEMPO 2309/2311 1/4SM FG VV001
     FM231100 30003KT P6SM BKN250
     FM231300 00000KT P6SM BKN015
     FM231700 35004KT P6SM SCT025
     FM232000 35005KT P6SM SCT035
     FM240000 02004KT P6SM FEW250=

USA.gov is the U.S. government's official web portal to all federal, state and local government web resources and services.